sensor_id;sensor_type;location;lat;lon;timestamp;temperature;humidity
15483;DHT22;7843;50.330;7.312;2022-08-19T00:01:50;18.70;93.50
15483;DHT22;7843;50.330;7.312;2022-08-19T00:04:20;18.70;93.50
15483;DHT22;7843;50.330;7.312;2022-08-19T00:06:47;18.70;93.50
15483;DHT22;7843;50.330;7.312;2022-08-19T00:09:16;18.70;93.50
15483;DHT22;7843;50.330;7.312;2022-08-19T00:11:44;18.70;93.40
15483;DHT22;7843;50.330;7.312;2022-08-19T00:14:13;18.70;93.50
15483;DHT22;7843;50.330;7.312;2022-08-19T00:16:43;18.60;93.60
15483;DHT22;7843;50.330;7.312;2022-08-19T00:19:10;18.60;93.60
15483;DHT22;7843;50.330;7.312;2022-08-19T00:21:37;18.60;93.70
15483;DHT22;7843;50.330;7.312;2022-08-19T00:24:07;18.70;93.50
15483;DHT22;7843;50.330;7.312;2022-08-19T00:26:35;18.70;93.40
15483;DHT22;7843;50.330;7.312;2022-08-19T00:29:04;18.70;93.50
15483;DHT22;7843;50.330;7.312;2022-08-19T00:31:31;18.70;93.50
15483;DHT22;7843;50.330;7.312;2022-08-19T00:33:58;18.80;93.60
15483;DHT22;7843;50.330;7.312;2022-08-19T00:36:25;18.80;93.60
15483;DHT22;7843;50.330;7.312;2022-08-19T00:38:52;18.90;93.40
15483;DHT22;7843;50.330;7.312;2022-08-19T00:41:21;19.00;93.40
15483;DHT22;7843;50.330;7.312;2022-08-19T00:44:06;19.10;93.40
15483;DHT22;7843;50.330;7.312;2022-08-19T00:46:35;19.20;93.40
15483;DHT22;7843;50.330;7.312;2022-08-19T00:49:10;19.30;93.10
15483;DHT22;7843;50.330;7.312;2022-08-19T00:51:38;19.40;92.90
15483;DHT22;7843;50.330;7.312;2022-08-19T00:54:05;19.40;92.70
15483;DHT22;7843;50.330;7.312;2022-08-19T00:56:32;19.40;92.60
15483;DHT22;7843;50.330;7.312;2022-08-19T00:59:01;19.40;92.70
15483;DHT22;7843;50.330;7.312;2022-08-19T01:01:28;19.40;92.90
15483;DHT22;7843;50.330;7.312;2022-08-19T01:03:55;19.40;92.70
15483;DHT22;7843;50.330;7.312;2022-08-19T01:06:22;19.30;92.80
15483;DHT22;7843;50.330;7.312;2022-08-19T01:08:49;19.40;92.70
15483;DHT22;7843;50.330;7.312;2022-08-19T01:11:16;19.30;92.80
15483;DHT22;7843;50.330;7.312;2022-08-19T01:13:44;19.30;93.20
15483;DHT22;7843;50.330;7.312;2022-08-19T01:16:13;19.20;93.00
15483;DHT22;7843;50.330;7.312;2022-08-19T01:18:42;19.20;92.60
15483;DHT22;7843;50.330;7.312;2022-08-19T01:21:16;19.10;92.60
15483;DHT22;7843;50.330;7.312;2022-08-19T01:23:44;19.00;92.80
15483;DHT22;7843;50.330;7.312;2022-08-19T01:26:14;18.90;93.30
15483;DHT22;7843;50.330;7.312;2022-08-19T01:28:43;18.90;93.50
15483;DHT22;7843;50.330;7.312;2022-08-19T01:31:14;18.80;93.70
15483;DHT22;7843;50.330;7.312;2022-08-19T01:33:42;18.70;93.90
15483;DHT22;7843;50.330;7.312;2022-08-19T01:36:15;18.70;93.80
15483;DHT22;7843;50.330;7.312;2022-08-19T01:38:43;18.70;93.80
15483;DHT22;7843;50.330;7.312;2022-08-19T01:41:11;18.60;94.00
15483;DHT22;7843;50.330;7.312;2022-08-19T01:43:38;18.60;94.30
15483;DHT22;7843;50.330;7.312;2022-08-19T01:46:05;18.60;94.50
15483;DHT22;7843;50.330;7.312;2022-08-19T01:48:37;18.60;94.60
15483;DHT22;7843;50.330;7.312;2022-08-19T01:51:07;18.60;94.90
15483;DHT22;7843;50.330;7.312;2022-08-19T01:53:34;18.70;95.50
15483;DHT22;7843;50.330;7.312;2022-08-19T01:56:01;18.70;95.70
15483;DHT22;7843;50.330;7.312;2022-08-19T01:58:32;18.70;95.50
15483;DHT22;7843;50.330;7.312;2022-08-19T02:01:04;18.70;95.50
15483;DHT22;7843;50.330;7.312;2022-08-19T02:03:31;18.60;95.70
15483;DHT22;7843;50.330;7.312;2022-08-19T02:05:59;18.60;95.80
15483;DHT22;7843;50.330;7.312;2022-08-19T02:08:27;18.60;95.80
15483;DHT22;7843;50.330;7.312;2022-08-19T02:10:54;18.60;95.70
15483;DHT22;7843;50.330;7.312;2022-08-19T02:13:20;18.60;95.50
15483;DHT22;7843;50.330;7.312;2022-08-19T02:15:47;18.60;95.20
15483;DHT22;7843;50.330;7.312;2022-08-19T02:18:14;18.60;95.30
15483;DHT22;7843;50.330;7.312;2022-08-19T02:20:42;18.70;95.30
15483;DHT22;7843;50.330;7.312;2022-08-19T02:23:10;18.60;95.20
15483;DHT22;7843;50.330;7.312;2022-08-19T02:25:38;18.60;95.40
15483;DHT22;7843;50.330;7.312;2022-08-19T02:28:05;18.60;95.60
15483;DHT22;7843;50.330;7.312;2022-08-19T02:30:32;18.50;95.90
15483;DHT22;7843;50.330;7.312;2022-08-19T02:32:59;18.50;95.90
15483;DHT22;7843;50.330;7.312;2022-08-19T02:35:26;18.40;96.00
15483;DHT22;7843;50.330;7.312;2022-08-19T02:37:53;18.40;96.30
15483;DHT22;7843;50.330;7.312;2022-08-19T02:40:38;18.40;96.30
15483;DHT22;7843;50.330;7.312;2022-08-19T02:43:06;18.40;96.40
15483;DHT22;7843;50.330;7.312;2022-08-19T02:45:38;18.50;96.20
15483;DHT22;7843;50.330;7.312;2022-08-19T02:48:07;18.50;95.90
15483;DHT22;7843;50.330;7.312;2022-08-19T02:50:39;18.50;95.90
15483;DHT22;7843;50.330;7.312;2022-08-19T02:53:06;18.50;95.80
15483;DHT22;7843;50.330;7.312;2022-08-19T02:55:34;18.50;95.90
15483;DHT22;7843;50.330;7.312;2022-08-19T02:58:01;18.40;96.30
15483;DHT22;7843;50.330;7.312;2022-08-19T03:00:28;18.40;96.40
15483;DHT22;7843;50.330;7.312;2022-08-19T03:02:55;18.40;96.60
15483;DHT22;7843;50.330;7.312;2022-08-19T03:05:22;18.40;96.70
15483;DHT22;7843;50.330;7.312;2022-08-19T03:07:49;18.30;97.00
15483;DHT22;7843;50.330;7.312;2022-08-19T03:10:16;18.30;97.10
15483;DHT22;7843;50.330;7.312;2022-08-19T03:12:42;18.20;97.00
15483;DHT22;7843;50.330;7.312;2022-08-19T03:17:36;18.10;97.30
15483;DHT22;7843;50.330;7.312;2022-08-19T03:20:04;18.10;97.40
15483;DHT22;7843;50.330;7.312;2022-08-19T03:22:30;17.90;97.70
15483;DHT22;7843;50.330;7.312;2022-08-19T03:24:57;17.90;98.00
15483;DHT22;7843;50.330;7.312;2022-08-19T03:27:25;17.80;98.10
15483;DHT22;7843;50.330;7.312;2022-08-19T03:29:54;17.80;97.80
15483;DHT22;7843;50.330;7.312;2022-08-19T03:32:21;17.70;98.20
15483;DHT22;7843;50.330;7.312;2022-08-19T03:34:48;17.70;97.30
15483;DHT22;7843;50.330;7.312;2022-08-19T03:37:15;17.70;97.70
15483;DHT22;7843;50.330;7.312;2022-08-19T03:39:42;17.60;97.90
15483;DHT22;7843;50.330;7.312;2022-08-19T03:42:09;17.70;98.30
15483;DHT22;7843;50.330;7.312;2022-08-19T03:44:36;17.60;98.00
15483;DHT22;7843;50.330;7.312;2022-08-19T03:47:04;17.60;98.60
15483;DHT22;7843;50.330;7.312;2022-08-19T03:49:32;17.60;99.00
15483;DHT22;7843;50.330;7.312;2022-08-19T03:52:02;17.60;99.10
15483;DHT22;7843;50.330;7.312;2022-08-19T03:54:31;17.50;99.30
15483;DHT22;7843;50.330;7.312;2022-08-19T03:56:58;17.50;99.20
15483;DHT22;7843;50.330;7.312;2022-08-19T03:59:31;17.50;99.40
15483;DHT22;7843;50.330;7.312;2022-08-19T04:02:01;17.40;99.50
15483;DHT22;7843;50.330;7.312;2022-08-19T04:04:28;17.40;99.40
15483;DHT22;7843;50.330;7.312;2022-08-19T04:06:56;17.40;99.70
15483;DHT22;7843;50.330;7.312;2022-08-19T04:09:23;17.40;99.40
15483;DHT22;7843;50.330;7.312;2022-08-19T04:11:52;17.40;99.60
15483;DHT22;7843;50.330;7.312;2022-08-19T04:14:28;17.30;99.50
15483;DHT22;7843;50.330;7.312;2022-08-19T04:16:58;17.30;99.60
15483;DHT22;7843;50.330;7.312;2022-08-19T04:19:25;17.30;99.90
15483;DHT22;7843;50.330;7.312;2022-08-19T04:21:53;17.40;99.90
15483;DHT22;7843;50.330;7.312;2022-08-19T04:24:21;17.30;99.90
15483;DHT22;7843;50.330;7.312;2022-08-19T04:26:48;17.30;99.90
15483;DHT22;7843;50.330;7.312;2022-08-19T04:29:18;17.30;99.90
15483;DHT22;7843;50.330;7.312;2022-08-19T04:31:46;17.30;99.90
15483;DHT22;7843;50.330;7.312;2022-08-19T04:34:15;17.20;99.90
15483;DHT22;7843;50.330;7.312;2022-08-19T04:36:44;17.20;99.90
15483;DHT22;7843;50.330;7.312;2022-08-19T04:39:16;17.20;99.90
15483;DHT22;7843;50.330;7.312;2022-08-19T04:41:44;17.20;99.90
15483;DHT22;7843;50.330;7.312;2022-08-19T04:44:34;17.20;99.90
15483;DHT22;7843;50.330;7.312;2022-08-19T04:47:01;17.10;99.90
15483;DHT22;7843;50.330;7.312;2022-08-19T04:49:31;17.10;99.90
15483;DHT22;7843;50.330;7.312;2022-08-19T04:51:58;17.10;99.90
15483;DHT22;7843;50.330;7.312;2022-08-19T04:54:25;17.10;99.90
15483;DHT22;7843;50.330;7.312;2022-08-19T04:56:53;17.10;99.90
15483;DHT22;7843;50.330;7.312;2022-08-19T04:59:20;17.20;99.90
15483;DHT22;7843;50.330;7.312;2022-08-19T05:01:48;17.20;99.90
15483;DHT22;7843;50.330;7.312;2022-08-19T05:04:18;17.20;99.90
15483;DHT22;7843;50.330;7.312;2022-08-19T05:06:47;17.20;99.90
15483;DHT22;7843;50.330;7.312;2022-08-19T05:09:15;17.30;99.90
15483;DHT22;7843;50.330;7.312;2022-08-19T05:11:43;17.30;99.90
15483;DHT22;7843;50.330;7.312;2022-08-19T05:14:11;17.30;99.90
15483;DHT22;7843;50.330;7.312;2022-08-19T05:16:39;17.40;99.90
15483;DHT22;7843;50.330;7.312;2022-08-19T05:19:06;17.50;99.90
15483;DHT22;7843;50.330;7.312;2022-08-19T05:21:52;17.50;99.90
15483;DHT22;7843;50.330;7.312;2022-08-19T05:24:38;17.60;99.80
15483;DHT22;7843;50.330;7.312;2022-08-19T05:27:13;17.70;99.90
15483;DHT22;7843;50.330;7.312;2022-08-19T05:29:40;17.80;99.90
15483;DHT22;7843;50.330;7.312;2022-08-19T05:32:06;17.90;99.50
15483;DHT22;7843;50.330;7.312;2022-08-19T05:34:37;18.00;99.50
15483;DHT22;7843;50.330;7.312;2022-08-19T05:37:05;18.10;99.20
15483;DHT22;7843;50.330;7.312;2022-08-19T05:39:35;18.20;99.00
15483;DHT22;7843;50.330;7.312;2022-08-19T05:42:08;18.30;98.70
15483;DHT22;7843;50.330;7.312;2022-08-19T05:44:37;18.50;98.20
15483;DHT22;7843;50.330;7.312;2022-08-19T05:47:07;18.60;98.20
15483;DHT22;7843;50.330;7.312;2022-08-19T05:49:35;18.70;98.40
15483;DHT22;7843;50.330;7.312;2022-08-19T05:52:05;18.80;98.00
15483;DHT22;7843;50.330;7.312;2022-08-19T05:54:33;19.00;97.60
15483;DHT22;7843;50.330;7.312;2022-08-19T05:57:00;19.10;97.40
15483;DHT22;7843;50.330;7.312;2022-08-19T05:59:27;19.30;97.20
15483;DHT22;7843;50.330;7.312;2022-08-19T06:01:55;19.40;97.00
15483;DHT22;7843;50.330;7.312;2022-08-19T06:04:23;19.60;96.90
15483;DHT22;7843;50.330;7.312;2022-08-19T06:06:52;19.90;96.60
15483;DHT22;7843;50.330;7.312;2022-08-19T06:09:20;20.00;96.10
15483;DHT22;7843;50.330;7.312;2022-08-19T06:11:50;20.20;95.60
15483;DHT22;7843;50.330;7.312;2022-08-19T06:14:25;20.40;95.40
15483;DHT22;7843;50.330;7.312;2022-08-19T06:16:52;20.50;95.00
15483;DHT22;7843;50.330;7.312;2022-08-19T06:19:21;20.70;94.60
15483;DHT22;7843;50.330;7.312;2022-08-19T06:21:49;20.90;94.00
15483;DHT22;7843;50.330;7.312;2022-08-19T06:24:20;21.00;93.40
15483;DHT22;7843;50.330;7.312;2022-08-19T06:26:50;21.20;93.00
15483;DHT22;7843;50.330;7.312;2022-08-19T06:29:21;21.40;92.70
15483;DHT22;7843;50.330;7.312;2022-08-19T06:31:50;21.50;92.40
15483;DHT22;7843;50.330;7.312;2022-08-19T06:34:18;21.70;91.60
15483;DHT22;7843;50.330;7.312;2022-08-19T06:36:48;21.80;91.20
15483;DHT22;7843;50.330;7.312;2022-08-19T06:39:19;21.90;90.90
15483;DHT22;7843;50.330;7.312;2022-08-19T06:41:48;22.00;90.50
15483;DHT22;7843;50.330;7.312;2022-08-19T06:44:22;22.10;90.50
15483;DHT22;7843;50.330;7.312;2022-08-19T06:46:49;22.20;90.40
15483;DHT22;7843;50.330;7.312;2022-08-19T06:49:17;22.20;90.00
15483;DHT22;7843;50.330;7.312;2022-08-19T06:51:46;22.40;89.50
15483;DHT22;7843;50.330;7.312;2022-08-19T06:54:17;22.40;88.80
15483;DHT22;7843;50.330;7.312;2022-08-19T06:56:45;22.40;88.80
15483;DHT22;7843;50.330;7.312;2022-08-19T06:59:15;22.40;88.20
15483;DHT22;7843;50.330;7.312;2022-08-19T07:01:46;22.40;87.70
15483;DHT22;7843;50.330;7.312;2022-08-19T07:04:15;22.40;87.30
15483;DHT22;7843;50.330;7.312;2022-08-19T07:06:43;22.40;87.40
15483;DHT22;7843;50.330;7.312;2022-08-19T07:09:13;22.40;87.00
15483;DHT22;7843;50.330;7.312;2022-08-19T07:11:46;22.50;86.70
15483;DHT22;7843;50.330;7.312;2022-08-19T07:14:14;22.40;86.80
15483;DHT22;7843;50.330;7.312;2022-08-19T07:16:44;22.50;86.80
15483;DHT22;7843;50.330;7.312;2022-08-19T07:19:14;22.40;87.10
15483;DHT22;7843;50.330;7.312;2022-08-19T07:21:41;22.50;87.00
15483;DHT22;7843;50.330;7.312;2022-08-19T07:24:08;22.50;87.00
15483;DHT22;7843;50.330;7.312;2022-08-19T07:26:41;22.40;86.90
15483;DHT22;7843;50.330;7.312;2022-08-19T07:29:10;22.50;86.30
15483;DHT22;7843;50.330;7.312;2022-08-19T07:31:37;22.50;86.40
15483;DHT22;7843;50.330;7.312;2022-08-19T07:34:06;22.60;86.20
15483;DHT22;7843;50.330;7.312;2022-08-19T07:36:36;22.60;85.70
15483;DHT22;7843;50.330;7.312;2022-08-19T07:39:07;22.70;85.60
15483;DHT22;7843;50.330;7.312;2022-08-19T07:41:35;22.90;85.00
15483;DHT22;7843;50.330;7.312;2022-08-19T07:44:04;22.90;84.80
15483;DHT22;7843;50.330;7.312;2022-08-19T07:46:32;22.90;84.60
15483;DHT22;7843;50.330;7.312;2022-08-19T07:51:28;23.00;84.60
15483;DHT22;7843;50.330;7.312;2022-08-19T07:53:55;23.00;84.50
15483;DHT22;7843;50.330;7.312;2022-08-19T07:56:22;23.10;83.20
15483;DHT22;7843;50.330;7.312;2022-08-19T07:58:51;23.20;83.40
15483;DHT22;7843;50.330;7.312;2022-08-19T08:01:21;23.30;83.90
15483;DHT22;7843;50.330;7.312;2022-08-19T08:03:49;23.20;83.10
15483;DHT22;7843;50.330;7.312;2022-08-19T08:06:35;23.20;82.80
15483;DHT22;7843;50.330;7.312;2022-08-19T08:09:26;23.40;83.20
15483;DHT22;7843;50.330;7.312;2022-08-19T08:12:00;23.50;83.20
15483;DHT22;7843;50.330;7.312;2022-08-19T08:14:34;23.50;82.60
15483;DHT22;7843;50.330;7.312;2022-08-19T08:17:02;23.70;81.40
15483;DHT22;7843;50.330;7.312;2022-08-19T08:19:29;23.80;80.60
15483;DHT22;7843;50.330;7.312;2022-08-19T08:21:58;23.90;81.00
15483;DHT22;7843;50.330;7.312;2022-08-19T08:24:27;23.90;81.30
15483;DHT22;7843;50.330;7.312;2022-08-19T08:26:55;24.00;79.70
15483;DHT22;7843;50.330;7.312;2022-08-19T08:29:22;24.10;78.30
15483;DHT22;7843;50.330;7.312;2022-08-19T08:31:49;24.10;78.10
15483;DHT22;7843;50.330;7.312;2022-08-19T08:34:16;24.10;78.00
15483;DHT22;7843;50.330;7.312;2022-08-19T08:36:44;24.20;77.80
15483;DHT22;7843;50.330;7.312;2022-08-19T08:39:14;24.30;78.20
15483;DHT22;7843;50.330;7.312;2022-08-19T08:41:45;24.40;77.90
15483;DHT22;7843;50.330;7.312;2022-08-19T08:45:02;24.50;77.90
15483;DHT22;7843;50.330;7.312;2022-08-19T08:47:05;24.50;77.30
15483;DHT22;7843;50.330;7.312;2022-08-19T08:49:53;24.60;77.10
15483;DHT22;7843;50.330;7.312;2022-08-19T08:52:45;24.70;77.30
15483;DHT22;7843;50.330;7.312;2022-08-19T08:55:16;24.80;76.70
15483;DHT22;7843;50.330;7.312;2022-08-19T08:57:45;24.80;76.70
15483;DHT22;7843;50.330;7.312;2022-08-19T09:02:47;25.10;75.50
15483;DHT22;7843;50.330;7.312;2022-08-19T09:05:14;25.10;74.00
15483;DHT22;7843;50.330;7.312;2022-08-19T09:08:05;25.00;73.50
15483;DHT22;7843;50.330;7.312;2022-08-19T09:10:59;25.20;74.60
15483;DHT22;7843;50.330;7.312;2022-08-19T09:13:53;25.20;75.30
15483;DHT22;7843;50.330;7.312;2022-08-19T09:16:23;25.30;75.00
15483;DHT22;7843;50.330;7.312;2022-08-19T09:19:01;25.40;74.30
15483;DHT22;7843;50.330;7.312;2022-08-19T09:21:29;25.50;73.90
15483;DHT22;7843;50.330;7.312;2022-08-19T09:23:56;25.60;74.50
15483;DHT22;7843;50.330;7.312;2022-08-19T09:26:25;25.70;73.70
15483;DHT22;7843;50.330;7.312;2022-08-19T09:28:53;25.70;73.20
15483;DHT22;7843;50.330;7.312;2022-08-19T09:31:23;25.70;73.40
15483;DHT22;7843;50.330;7.312;2022-08-19T09:33:51;25.70;72.80
15483;DHT22;7843;50.330;7.312;2022-08-19T09:36:20;25.80;72.60
15483;DHT22;7843;50.330;7.312;2022-08-19T09:38:48;25.70;73.00
15483;DHT22;7843;50.330;7.312;2022-08-19T09:41:18;25.60;73.40
15483;DHT22;7843;50.330;7.312;2022-08-19T09:43:48;25.70;73.50
15483;DHT22;7843;50.330;7.312;2022-08-19T09:46:19;25.90;73.30
15483;DHT22;7843;50.330;7.312;2022-08-19T09:48:48;26.00;73.00
15483;DHT22;7843;50.330;7.312;2022-08-19T09:51:21;26.00;72.90
15483;DHT22;7843;50.330;7.312;2022-08-19T09:53:50;26.10;73.20
15483;DHT22;7843;50.330;7.312;2022-08-19T09:56:18;26.20;72.10
15483;DHT22;7843;50.330;7.312;2022-08-19T09:58:45;26.10;72.20
15483;DHT22;7843;50.330;7.312;2022-08-19T10:01:18;26.10;72.30
15483;DHT22;7843;50.330;7.312;2022-08-19T10:03:48;26.20;72.80
15483;DHT22;7843;50.330;7.312;2022-08-19T10:06:16;26.30;72.00
15483;DHT22;7843;50.330;7.312;2022-08-19T10:08:44;26.40;72.10
15483;DHT22;7843;50.330;7.312;2022-08-19T10:11:11;26.50;71.90
15483;DHT22;7843;50.330;7.312;2022-08-19T10:13:38;26.70;71.20
15483;DHT22;7843;50.330;7.312;2022-08-19T10:16:11;26.70;71.30
15483;DHT22;7843;50.330;7.312;2022-08-19T10:18:38;26.70;70.90
15483;DHT22;7843;50.330;7.312;2022-08-19T10:21:18;26.90;71.10
15483;DHT22;7843;50.330;7.312;2022-08-19T10:23:48;26.90;70.50
15483;DHT22;7843;50.330;7.312;2022-08-19T10:26:18;26.90;70.40
15483;DHT22;7843;50.330;7.312;2022-08-19T10:28:46;27.00;70.90
15483;DHT22;7843;50.330;7.312;2022-08-19T10:31:25;27.00;70.40
15483;DHT22;7843;50.330;7.312;2022-08-19T10:33:52;27.10;70.30
15483;DHT22;7843;50.330;7.312;2022-08-19T10:36:30;27.10;69.70
15483;DHT22;7843;50.330;7.312;2022-08-19T10:38:59;27.20;69.50
15483;DHT22;7843;50.330;7.312;2022-08-19T10:41:30;27.20;68.90
15483;DHT22;7843;50.330;7.312;2022-08-19T10:43:59;27.20;69.30
15483;DHT22;7843;50.330;7.312;2022-08-19T10:46:28;27.40;69.20
15483;DHT22;7843;50.330;7.312;2022-08-19T10:48:58;27.50;69.10
15483;DHT22;7843;50.330;7.312;2022-08-19T10:51:26;27.50;69.10
15483;DHT22;7843;50.330;7.312;2022-08-19T10:54:11;27.60;68.70
15483;DHT22;7843;50.330;7.312;2022-08-19T10:56:38;27.70;68.30
15483;DHT22;7843;50.330;7.312;2022-08-19T10:59:28;27.70;67.60
15483;DHT22;7843;50.330;7.312;2022-08-19T11:02:02;27.60;68.10
15483;DHT22;7843;50.330;7.312;2022-08-19T11:04:29;27.60;67.80
15483;DHT22;7843;50.330;7.312;2022-08-19T11:06:56;27.70;67.90
15483;DHT22;7843;50.330;7.312;2022-08-19T11:09:25;27.70;67.90
15483;DHT22;7843;50.330;7.312;2022-08-19T11:11:58;27.70;67.30
15483;DHT22;7843;50.330;7.312;2022-08-19T11:14:25;27.70;67.60
15483;DHT22;7843;50.330;7.312;2022-08-19T11:16:52;27.80;67.70
15483;DHT22;7843;50.330;7.312;2022-08-19T11:19:22;27.90;67.00
15483;DHT22;7843;50.330;7.312;2022-08-19T11:21:51;28.00;66.90
15483;DHT22;7843;50.330;7.312;2022-08-19T11:24:24;28.00;67.10
15483;DHT22;7843;50.330;7.312;2022-08-19T11:26:53;28.00;66.20
15483;DHT22;7843;50.330;7.312;2022-08-19T11:29:25;28.10;66.60
15483;DHT22;7843;50.330;7.312;2022-08-19T11:31:54;28.10;66.30
15483;DHT22;7843;50.330;7.312;2022-08-19T11:34:23;28.20;66.40
15483;DHT22;7843;50.330;7.312;2022-08-19T11:36:51;28.30;66.00
15483;DHT22;7843;50.330;7.312;2022-08-19T11:39:20;28.40;65.50
15483;DHT22;7843;50.330;7.312;2022-08-19T11:41:48;28.50;64.80
15483;DHT22;7843;50.330;7.312;2022-08-19T11:44:15;28.50;64.80
15483;DHT22;7843;50.330;7.312;2022-08-19T11:46:43;28.60;64.10
15483;DHT22;7843;50.330;7.312;2022-08-19T11:49:14;28.70;64.10
15483;DHT22;7843;50.330;7.312;2022-08-19T11:51:42;28.90;64.10
15483;DHT22;7843;50.330;7.312;2022-08-19T11:54:14;29.20;63.40
15483;DHT22;7843;50.330;7.312;2022-08-19T11:56:43;29.40;62.60
15483;DHT22;7843;50.330;7.312;2022-08-19T11:59:10;29.30;63.20
15483;DHT22;7843;50.330;7.312;2022-08-19T12:01:40;29.60;62.50
15483;DHT22;7843;50.330;7.312;2022-08-19T12:04:09;29.80;61.90
15483;DHT22;7843;50.330;7.312;2022-08-19T12:06:38;30.20;61.40
15483;DHT22;7843;50.330;7.312;2022-08-19T12:09:07;30.30;60.40
15483;DHT22;7843;50.330;7.312;2022-08-19T12:11:36;30.40;60.00
15483;DHT22;7843;50.330;7.312;2022-08-19T12:14:03;30.60;60.00
15483;DHT22;7843;50.330;7.312;2022-08-19T12:16:30;30.90;59.60
15483;DHT22;7843;50.330;7.312;2022-08-19T12:18:58;31.10;59.00
15483;DHT22;7843;50.330;7.312;2022-08-19T12:21:31;31.10;59.30
15483;DHT22;7843;50.330;7.312;2022-08-19T12:23:59;31.40;58.60
15483;DHT22;7843;50.330;7.312;2022-08-19T12:26:28;31.70;58.40
15483;DHT22;7843;50.330;7.312;2022-08-19T12:28:55;31.70;57.40
15483;DHT22;7843;50.330;7.312;2022-08-19T12:31:22;31.30;58.10
15483;DHT22;7843;50.330;7.312;2022-08-19T12:33:48;31.30;58.10
15483;DHT22;7843;50.330;7.312;2022-08-19T12:36:16;31.40;58.50
15483;DHT22;7843;50.330;7.312;2022-08-19T12:38:44;31.60;57.40
15483;DHT22;7843;50.330;7.312;2022-08-19T12:41:14;31.80;57.70
15483;DHT22;7843;50.330;7.312;2022-08-19T12:43:44;32.10;56.80
15483;DHT22;7843;50.330;7.312;2022-08-19T12:46:11;32.30;57.20
15483;DHT22;7843;50.330;7.312;2022-08-19T12:48:38;32.50;56.10
15483;DHT22;7843;50.330;7.312;2022-08-19T12:51:12;32.70;55.60
15483;DHT22;7843;50.330;7.312;2022-08-19T12:53:39;32.80;55.10
15483;DHT22;7843;50.330;7.312;2022-08-19T12:56:07;32.80;55.40
15483;DHT22;7843;50.330;7.312;2022-08-19T12:58:34;32.60;55.20
15483;DHT22;7843;50.330;7.312;2022-08-19T13:01:09;32.40;56.20
15483;DHT22;7843;50.330;7.312;2022-08-19T13:03:37;32.60;55.40
15483;DHT22;7843;50.330;7.312;2022-08-19T13:06:06;32.60;55.20
15483;DHT22;7843;50.330;7.312;2022-08-19T13:08:33;32.40;55.30
15483;DHT22;7843;50.330;7.312;2022-08-19T13:11:15;31.90;56.10
15483;DHT22;7843;50.330;7.312;2022-08-19T13:13:46;32.00;56.10
15483;DHT22;7843;50.330;7.312;2022-08-19T13:16:14;31.90;55.60
15483;DHT22;7843;50.330;7.312;2022-08-19T13:18:42;32.20;56.00
15483;DHT22;7843;50.330;7.312;2022-08-19T13:21:10;32.40;55.80
15483;DHT22;7843;50.330;7.312;2022-08-19T13:23:40;31.90;56.10
15483;DHT22;7843;50.330;7.312;2022-08-19T13:26:09;32.00;56.10
15483;DHT22;7843;50.330;7.312;2022-08-19T13:28:37;32.30;55.40
15483;DHT22;7843;50.330;7.312;2022-08-19T13:31:23;32.40;55.10
15483;DHT22;7843;50.330;7.312;2022-08-19T13:34:09;32.90;54.60
15483;DHT22;7843;50.330;7.312;2022-08-19T13:36:36;33.10;54.10
15483;DHT22;7843;50.330;7.312;2022-08-19T13:39:05;33.10;53.90
15483;DHT22;7843;50.330;7.312;2022-08-19T13:41:32;32.70;54.30
15483;DHT22;7843;50.330;7.312;2022-08-19T13:44:00;32.30;55.30
15483;DHT22;7843;50.330;7.312;2022-08-19T13:46:28;32.60;55.00
15483;DHT22;7843;50.330;7.312;2022-08-19T13:48:56;33.10;54.80
15483;DHT22;7843;50.330;7.312;2022-08-19T13:51:23;33.40;54.30
15483;DHT22;7843;50.330;7.312;2022-08-19T13:53:49;33.50;53.40
15483;DHT22;7843;50.330;7.312;2022-08-19T13:56:18;33.50;53.60
15483;DHT22;7843;50.330;7.312;2022-08-19T13:58:48;33.60;54.10
15483;DHT22;7843;50.330;7.312;2022-08-19T14:01:21;33.80;53.40
15483;DHT22;7843;50.330;7.312;2022-08-19T14:03:48;33.60;53.00
15483;DHT22;7843;50.330;7.312;2022-08-19T14:08:43;33.80;53.10
15483;DHT22;7843;50.330;7.312;2022-08-19T14:11:11;34.10;53.40
15483;DHT22;7843;50.330;7.312;2022-08-19T14:13:38;34.30;52.80
15483;DHT22;7843;50.330;7.312;2022-08-19T14:16:13;34.50;52.20
15483;DHT22;7843;50.330;7.312;2022-08-19T14:18:40;34.60;52.20
15483;DHT22;7843;50.330;7.312;2022-08-19T14:21:08;34.70;51.50
15483;DHT22;7843;50.330;7.312;2022-08-19T14:23:40;34.70;52.00
15483;DHT22;7843;50.330;7.312;2022-08-19T14:26:09;34.60;52.10
15483;DHT22;7843;50.330;7.312;2022-08-19T14:28:36;34.70;52.00
15483;DHT22;7843;50.330;7.312;2022-08-19T14:31:03;34.60;51.90
15483;DHT22;7843;50.330;7.312;2022-08-19T14:33:30;34.10;52.50
15483;DHT22;7843;50.330;7.312;2022-08-19T14:35:56;33.10;53.80
15483;DHT22;7843;50.330;7.312;2022-08-19T14:38:23;32.60;55.10
15483;DHT22;7843;50.330;7.312;2022-08-19T14:40:50;32.80;54.80
15483;DHT22;7843;50.330;7.312;2022-08-19T14:43:18;33.20;54.50
15483;DHT22;7843;50.330;7.312;2022-08-19T14:45:45;33.20;54.50
15483;DHT22;7843;50.330;7.312;2022-08-19T14:48:11;33.20;54.60
15483;DHT22;7843;50.330;7.312;2022-08-19T14:50:39;33.30;54.10
15483;DHT22;7843;50.330;7.312;2022-08-19T14:53:09;33.00;54.60
15483;DHT22;7843;50.330;7.312;2022-08-19T14:55:35;32.50;55.30
15483;DHT22;7843;50.330;7.312;2022-08-19T14:58:02;32.00;56.40
15483;DHT22;7843;50.330;7.312;2022-08-19T15:00:29;31.90;56.30
15483;DHT22;7843;50.330;7.312;2022-08-19T15:02:56;31.60;56.50
15483;DHT22;7843;50.330;7.312;2022-08-19T15:05:23;31.80;56.70
15483;DHT22;7843;50.330;7.312;2022-08-19T15:07:50;32.30;55.60
15483;DHT22;7843;50.330;7.312;2022-08-19T15:10:17;32.60;54.60
15483;DHT22;7843;50.330;7.312;2022-08-19T15:12:43;32.70;54.20
15483;DHT22;7843;50.330;7.312;2022-08-19T15:15:13;32.30;54.30
15483;DHT22;7843;50.330;7.312;2022-08-19T15:17:41;32.20;53.60
15483;DHT22;7843;50.330;7.312;2022-08-19T15:20:09;31.90;54.40
15483;DHT22;7843;50.330;7.312;2022-08-19T15:22:37;31.60;54.40
15483;DHT22;7843;50.330;7.312;2022-08-19T15:25:05;31.30;54.90
15483;DHT22;7843;50.330;7.312;2022-08-19T15:27:33;31.00;55.40
15483;DHT22;7843;50.330;7.312;2022-08-19T15:30:01;30.80;55.10
15483;DHT22;7843;50.330;7.312;2022-08-19T15:32:29;30.50;55.90
15483;DHT22;7843;50.330;7.312;2022-08-19T15:34:56;30.30;55.60
15483;DHT22;7843;50.330;7.312;2022-08-19T15:37:23;30.10;56.60
15483;DHT22;7843;50.330;7.312;2022-08-19T15:39:50;30.00;56.00
15483;DHT22;7843;50.330;7.312;2022-08-19T15:42:17;29.80;56.50
15483;DHT22;7843;50.330;7.312;2022-08-19T15:44:45;29.70;56.80
15483;DHT22;7843;50.330;7.312;2022-08-19T15:47:13;29.60;57.10
15483;DHT22;7843;50.330;7.312;2022-08-19T15:49:40;29.50;57.10
15483;DHT22;7843;50.330;7.312;2022-08-19T15:52:07;29.40;57.80
15483;DHT22;7843;50.330;7.312;2022-08-19T15:54:33;29.40;57.90
15483;DHT22;7843;50.330;7.312;2022-08-19T15:57:00;29.50;57.90
15483;DHT22;7843;50.330;7.312;2022-08-19T15:59:46;29.60;57.70
15483;DHT22;7843;50.330;7.312;2022-08-19T16:02:32;29.70;57.90
15483;DHT22;7843;50.330;7.312;2022-08-19T16:05:24;29.70;57.90
15483;DHT22;7843;50.330;7.312;2022-08-19T16:08:10;29.60;58.40
15483;DHT22;7843;50.330;7.312;2022-08-19T16:10:38;29.50;58.60